Map

Track Data

SID SEASON NUMBER BASIN SUBBASIN NAME ISO_TIME NATURE LAT LON WMO_WIND WMO_PRES WMO_AGENCY TRACK_TYPE DIST2LAND LANDFALL IFLAG USA_AGENCY USA_ATCF_ID USA_LAT USA_LON USA_RECORD USA_STATUS USA_WIND USA_PRES USA_SSHS USA_R34_NE USA_R34_SE USA_R34_SW USA_R34_NW USA_R50_NE USA_R50_SE USA_R50_SW USA_R50_NW USA_R64_NE USA_R64_SE USA_R64_SW USA_R64_NW USA_POCI USA_ROCI USA_RMW USA_EYE TOKYO_LAT TOKYO_LON TOKYO_GRADE TOKYO_WIND TOKYO_PRES TOKYO_R50_DIR TOKYO_R50_LONG TOKYO_R50_SHORT TOKYO_R30_DIR TOKYO_R30_LONG TOKYO_R30_SHORT TOKYO_LAND CMA_LAT CMA_LON CMA_CAT CMA_WIND CMA_PRES HKO_LAT HKO_LON HKO_CAT HKO_WIND HKO_PRES NEWDELHI_LAT NEWDELHI_LON NEWDELHI_GRADE NEWDELHI_WIND NEWDELHI_PRES NEWDELHI_CI NEWDELHI_DP NEWDELHI_POCI REUNION_LAT REUNION_LON REUNION_TYPE REUNION_WIND REUNION_PRES REUNION_TNUM REUNION_CI REUNION_RMW REUNION_R34_NE REUNION_R34_SE REUNION_R34_SW REUNION_R34_NW REUNION_R50_NE REUNION_R50_SE REUNION_R50_SW REUNION_R50_NW REUNION_R64_NE REUNION_R64_SE REUNION_R64_SW REUNION_R64_NW BOM_LAT BOM_LON BOM_TYPE BOM_WIND BOM_PRES BOM_TNUM BOM_CI BOM_RMW BOM_R34_NE BOM_R34_SE BOM_R34_SW BOM_R34_NW BOM_R50_NE BOM_R50_SE BOM_R50_SW BOM_R50_NW BOM_R64_NE BOM_R64_SE BOM_R64_SW BOM_R64_NW BOM_ROCI BOM_POCI BOM_EYE BOM_POS_METHOD BOM_PRES_METHOD NADI_LAT NADI_LON NADI_CAT NADI_WIND NADI_PRES WELLINGTON_LAT WELLINGTON_LON WELLINGTON_WIND WELLINGTON_PRES DS824_LAT DS824_LON DS824_STAGE DS824_WIND DS824_PRES TD9636_LAT TD9636_LON TD9636_STAGE TD9636_WIND TD9636_PRES TD9635_LAT TD9635_LON TD9635_WIND TD9635_PRES TD9635_ROCI NEUMANN_LAT NEUMANN_LON NEUMANN_CLASS NEUMANN_WIND NEUMANN_PRES MLC_LAT MLC_LON MLC_CLASS MLC_WIND MLC_PRES USA_GUST BOM_GUST BOM_GUST_PER REUNION_GUST REUNION_GUST_PER USA_SEAHGT USA_SEARAD_NE USA_SEARAD_SE USA_SEARAD_SW USA_SEARAD_NW STORM_SPEED STORM_DIR
1963030S17165 1963 15 SP MM NOT_NAMED 1963-01-29 12:00:00 TS -16.9000 164.900 main 243 231 O________OO___ jtwc_sh SH251963 -16.9000 164.900 -1 -16.9000 164.900 TC -16.9000 164.900 2 8 130
1963030S17165 1963 15 SP MM NOT_NAMED 1963-01-29 15:00:00 TS -17.1417 165.199 main 231 224 P________PP___ SH251963 -17.1451 165.202 -1 -17.1451 165.202 TC -17.1348 165.194 2 8 131
1963030S17165 1963 15 SP MM NOT_NAMED 1963-01-29 18:00:00 TS -17.3951 165.497 main 224 209 O________OP___ jtwc_sh SH251963 -17.4000 165.500 -1 -17.4000 165.500 TC -17.3854 165.490 2 8 133
1963030S17165 1963 15 SP MM NOT_NAMED 1963-01-29 21:00:00 TS -17.6744 165.792 main 216 208 P________PP___ SH251963 -17.6774 165.793 -1 -17.6774 165.793 TC -17.6684 165.791 2 8 136
1963030S17165 1963 15 SP MM NOT_NAMED 1963-01-30 00:00:00 TS -18.0000 166.100 main 215 215 O________OO_O_ jtwc_sh SH251963 -18.0000 166.100 -1 -18.0000 166.100 TC 35 -18.0000 166.100 2 -18.0000 166.100 TC 30 9 140
1963030S17165 1963 15 SP MM NOT_NAMED 1963-01-30 03:00:00 TS -18.3973 166.427 main 232 227 P________PP_P_ SH251963 -18.3850 166.443 -1 -18.3850 166.443 TC 35 -18.3881 166.419 2 -18.4651 166.382 TC 32 10 142
1963030S17165 1963 15 SP MM NOT_NAMED 1963-01-30 06:00:00 TS -18.8219 166.768 main 257 257 O________OP_O_ jtwc_sh SH251963 -18.8000 166.800 -1 -18.8000 166.800 TC 35 -18.8070 166.755 2 -18.9000 166.700 TC 35 11 142
1963030S17165 1963 15 SP MM NOT_NAMED 1963-01-30 09:00:00 TS -19.2368 167.115 main 267 256 P________PP_P_ SH251963 -19.2223 167.135 -1 -19.2223 167.135 TC 35 -19.2224 167.113 2 -19.2799 167.078 TC 35 10 138
1963030S17165 1963 15 SP MM NOT_NAMED 1963-01-30 12:00:00 TS -19.6000 167.500 main 257 251 O________OO_O_ jtwc_sh SH251963 -19.6000 167.500 -1 -19.6000 167.500 TC 35 -19.6000 167.500 2 -19.6000 167.500 TC 35 10 129
1963030S17165 1963 15 SP MM NOT_NAMED 1963-01-30 15:00:00 TS -19.8717 167.937 main 254 254 P________PP_P_ SH251963 -19.8725 167.935 -1 -19.8725 167.935 TC 35 -19.8771 167.934 2 -19.8649 167.943 TC 35 10 121
1963030S17165 1963 15 SP MM NOT_NAMED 1963-01-30 18:00:00 TS -20.1038 168.398 main 272 269 O________OP_O_ jtwc_sh SH251963 -20.1000 168.400 -1 -20.1000 168.400 TC 35 -20.1153 168.394 2 -20.1000 168.400 TC 35 10 118
1963030S17165 1963 15 SP MM NOT_NAMED 1963-01-30 21:00:00 TS -20.3395 168.855 main 288 281 P________PP_P_ SH251963 -20.3349 168.858 -1 -20.3349 168.858 TC 35 -20.3458 168.856 2 -20.3424 168.850 TC 35 10 120
1963030S17165 1963 15 SP MM NOT_NAMED 1963-01-31 00:00:00 TS -20.6000 169.300 main 297 297 O________OO_O_ jtwc_sh SH251963 -20.6000 169.300 -1 -20.6000 169.300 TC 35 -20.6000 169.300 2 -20.6000 169.300 TC 35 10 125
1963030S17165 1963 15 SP MM NOT_NAMED 1963-01-31 03:00:00 TS -20.9151 169.739 main 314 314 P________PP_P_ SH251963 -20.9349 169.715 -1 -20.9349 169.715 TC 35 -20.9132 169.753 2 -20.8775 169.773 TC 37 10 130
1963030S17165 1963 15 SP MM NOT_NAMED 1963-01-31 06:00:00 TS -21.2638 170.144 main 335 335 O________OP_O_ jtwc_sh SH251963 -21.3000 170.100 -1 -21.3000 170.100 TC 35 -21.2553 170.176 2 -21.2000 170.200 TC 40 10 134
1963030S17165 1963 15 SP MM NOT_NAMED 1963-01-31 09:00:00 TS -21.6224 170.525 main 367 367 P________PP_P_ SH251963 -21.6426 170.502 -1 -21.6426 170.502 TC 35 -21.6196 170.537 2 -21.5849 170.560 TC 42 10 140
1963030S17165 1963 15 SP MM NOT_NAMED 1963-01-31 12:00:00 TS -22.0000 170.800 main 391 391 O________OO_O_ jtwc_sh SH251963 -22.0000 170.800 -1 -22.0000 170.800 TC 35 -22.0000 170.800 2 -22.0000 170.800 TC 45 9 156
1963030S17165 1963 15 SP MM NOT_NAMED 1963-01-31 15:00:00 TS -22.3944 170.902 main 401 401 P________PP_P_ SH251963 -22.3924 170.903 -1 -22.3924 170.903 TC 35 -22.3932 170.907 2 -22.3999 170.895 TC 47 8 173
1963030S17165 1963 15 SP MM NOT_NAMED 1963-01-31 18:00:00 TS -22.7998 170.905 main 404 404 O________OP_O_ jtwc_sh SH251963 -22.8000 170.900 -1 -22.8000 170.900 TC 35 -22.7993 170.920 2 -22.8000 170.900 TC 50 8 181
1963030S17165 1963 15 SP MM NOT_NAMED 1963-01-31 21:00:00 TS -23.2071 170.888 main 412 412 P________PP_P_ SH251963 -23.2075 170.885 -1 -23.2075 170.885 TC 35 -23.2058 170.897 2 -23.2075 170.885 TC 52 8 0
1963030S17165 1963 15 SP MM NOT_NAMED 1963-02-01 00:00:00 TS -23.6000 170.900 main 424 424 O________OO_O_ jtwc_sh SH251963 -23.6000 170.900 -1 -23.6000 170.900 TC 35 -23.6000 170.900 2 -23.6000 170.900 TC 55 8 171
1963030S17165 1963 15 SP MM NOT_NAMED 1963-02-01 03:00:00 TS -23.9603 171.026 main 450 450 P________PP_P_ SH251963 -23.9575 171.027 -1 -23.9575 171.027 TC 35 -23.9685 171.022 2 -23.9575 171.027 TC 52 8 159
1963030S17165 1963 15 SP MM NOT_NAMED 1963-02-01 06:00:00 TS -24.3057 171.194 main 483 483 O________OP_O_ jtwc_sh SH251963 -24.3000 171.200 -1 -24.3000 171.200 TC 35 -24.3227 171.177 2 -24.3000 171.200 TC 50 8 157
1963030S17165 1963 15 SP MM NOT_NAMED 1963-02-01 09:00:00 TS -24.6557 171.348 main 513 513 P________PP_P_ SH251963 -24.6500 171.350 -1 -24.6500 171.350 TC 35 -24.6654 171.344 2 -24.6575 171.350 TC 50 8 158
1963030S17165 1963 15 SP MM NOT_NAMED 1963-02-01 12:00:00 TS -25.0000 171.500 main 548 548 O________OO_O_ jtwc_sh SH251963 -25.0000 171.500 -1 -25.0000 171.500 TC 35 -25.0000 171.500 2 -25.0000 171.500 TC 50 7 157
1963030S17165 1963 15 SP MM NOT_NAMED 1963-02-01 15:00:00 TS -25.3388 171.665 main 583 583 P________PP_P_ SH251963 -25.3575 171.665 -1 -25.3575 171.665 TC 35 -25.3402 171.667 2 -25.3000 171.665 TC 47 7 158
1963030S17165 1963 15 SP MM NOT_NAMED 1963-02-01 18:00:00 TS -25.6681 171.803 main 617 617 O________OP_O_ jtwc_sh SH251963 -25.7000 171.800 -1 -25.7000 171.800 TC 35 -25.6723 171.811 2 -25.6000 171.800 TC 45 7 162
1963030S17165 1963 15 SP MM NOT_NAMED 1963-02-01 21:00:00 TS -25.9895 171.900 main 646 646 P________PP_P_ SH251963 -26.0074 171.902 -1 -26.0074 171.902 TC 35 -25.9932 171.901 2 -25.9500 171.895 TC 42 6 172
1963030S17165 1963 15 SP MM NOT_NAMED 1963-02-02 00:00:00 TS -26.3000 171.900 main 667 667 O________OO_O_ jtwc_sh SH251963 -26.3000 171.900 -1 -26.3000 171.900 TC 35 -26.3000 171.900 2 -26.3000 171.900 TC 40 6 191
1963030S17165 1963 15 SP MM NOT_NAMED 1963-02-02 03:00:00 TS -26.6079 171.768 main 682 675 P________PP_P_ SH251963 -26.6075 171.745 -1 -26.6075 171.745 TC 35 -26.6016 171.777 2 -26.6149 171.803 TC 40 7 208
1963030S17165 1963 15 SP MM NOT_NAMED 1963-02-02 06:00:00 TS -26.8969 171.541 main 684 684 O________OP_O_ jtwc_sh SH251963 -26.9000 171.500 -1 -26.9000 171.500 TC 35 -26.8876 171.564 2 -26.9000 171.600 TC 40 7 218
1963030S17165 1963 15 SP MM NOT_NAMED 1963-02-02 09:00:00 TS -27.1625 171.281 main 696 689 P________PP_P_ SH251963 -27.1650 171.257 -1 -27.1650 171.257 TC 35 -27.1548 171.293 2 -27.1651 171.315 TC 37 7 224
1963030S17165 1963 15 SP MM NOT_NAMED 1963-02-02 12:00:00 TS -27.4000 171.000 main 694 688 O________OO_O_ jtwc_sh SH251963 -27.4000 171.000 -1 -27.4000 171.000 TC 35 -27.4000 171.000 2 -27.4000 171.000 TC 35 6 227
1963030S17165 1963 15 SP MM NOT_NAMED 1963-02-02 15:00:00 TS -27.5976 170.757 main 701 695 P________PP_P_ SH251963 -27.6074 170.757 -1 -27.6074 170.757 TC 35 -27.5684 170.762 2 -27.6074 170.750 TC 35 6 229
1963030S17165 1963 15 SP MM NOT_NAMED 1963-02-02 18:00:00 TS -27.7811 170.502 main 703 698 O________OP_O_ jtwc_sh SH251963 -27.8000 170.500 -1 -27.8000 170.500 TC 35 -27.7244 170.507 2 -27.8000 170.500 TC 35 6 233
1963030S17165 1963 15 SP MM NOT_NAMED 1963-02-02 21:00:00 TS -27.9494 170.224 main 698 698 P________PP_P_ SH251963 -27.9624 170.222 -1 -27.9624 170.222 TC 35 -27.9182 170.224 2 -27.9548 170.229 TC 35 7 232
1963030S17165 1963 15 SP MM NOT_NAMED 1963-02-03 00:00:00 TS -28.2000 169.900 main 714 714 O________OO_O_ jtwc_sh SH251963 -28.2000 169.900 -1 -28.2000 169.900 TC 35 -28.2000 169.900 2 -28.2000 169.900 TC 35 9 224
1963030S17165 1963 15 SP MM NOT_NAMED 1963-02-03 03:00:00 TS -28.6109 169.502 main 720 686 P________PP_P_ SH251963 -28.5900 169.522 -1 -28.5900 169.522 TC 35 -28.6160 169.499 2 -28.6476 169.465 TC 35 12 218
1963030S17165 1963 15 SP MM NOT_NAMED 1963-02-03 06:00:00 TS -29.1309 169.065 main 686 654 O________OP_O_ jtwc_sh SH251963 -29.1000 169.100 -1 -29.1000 169.100 TC 35 -29.1235 169.059 2 -29.2000 169.000 TC 35 13 215
1963030S17165 1963 15 SP MM NOT_NAMED 1963-02-03 09:00:00 TS -29.6960 168.621 main 654 623 P________PP_P_ SH251963 -29.6776 168.643 -1 -29.6776 168.643 TC 35 -29.6942 168.615 2 -29.7349 168.585 TC 35 14 213
1963030S17165 1963 15 SP MM NOT_NAMED 1963-02-03 12:00:00 TS -30.3000 168.200 main 623 601 O________OO_O_ jtwc_sh SH251963 -30.3000 168.200 -1 -30.3000 168.200 TC 35 -30.3000 168.200 2 -30.3000 168.200 TC 35 14 210
1963030S17165 1963 15 SP MM NOT_NAMED 1963-02-03 15:00:00 TS -30.8969 167.827 main 601 579 P________PP_P_ SH251963 -30.8924 167.820 -1 -30.8924 167.820 TC 35 -30.9179 167.843 2 -30.8849 167.827 TC 35 14 206
1963030S17165 1963 15 SP MM NOT_NAMED 1963-02-03 18:00:00 TS -31.5105 167.509 main 580 559 O________OP_O_ jtwc_sh SH251963 -31.5000 167.500 -1 -31.5000 167.500 TC 35 -31.5419 167.536 2 -31.5000 167.500 TC 35 14 202
1963030S17165 1963 15 SP MM NOT_NAMED 1963-02-03 21:00:00 TS -32.1482 167.241 main 567 546 P________PP_P_ SH251963 -32.1401 167.236 -1 -32.1401 167.236 TC 35 -32.1700 167.261 2 -32.1425 167.233 TC 32 14 198
1963030S17165 1963 15 SP MM NOT_NAMED 1963-02-04 00:00:00 TS -32.8000 167.000 main 550 O________OO_O_ jtwc_sh SH251963 -32.8000 167.000 -1 -32.8000 167.000 TC 35 -32.8000 167.000 2 -32.8000 167.000 TC 30 14 197

Digital Typhoon Data and Search

About IBTrACS Database

This database is a web-friendly format of International Best Track Archive for Climate Stewardship (IBTrACS), a global best track data archive curated by NOAA dating back to 1842.

Updated: 2021-11-26